createdAt,value
2018-05-02T00:00:22.525Z,5.00
2018-05-02T00:02:50.790Z,4.23
2018-05-02T00:05:19.158Z,3.60
2018-05-02T00:07:48.078Z,4.30
2018-05-02T00:10:16.660Z,4.47
2018-05-02T00:12:45.703Z,4.57
2018-05-02T00:15:14.120Z,4.80
2018-05-02T00:17:42.389Z,5.20
2018-05-02T00:20:10.642Z,4.30
2018-05-02T00:22:38.943Z,4.20
2018-05-02T00:25:07.228Z,3.83
2018-05-02T00:27:35.511Z,3.00
2018-05-02T00:30:03.793Z,3.90
2018-05-02T00:32:32.576Z,4.00
2018-05-02T00:35:01.177Z,3.80
2018-05-02T00:37:30.051Z,4.10
2018-05-02T00:39:58.563Z,4.10
2018-05-02T00:42:27.177Z,3.33
2018-05-02T00:44:55.958Z,3.50
2018-05-02T00:47:25.662Z,3.13
2018-05-02T00:49:56.146Z,3.43
2018-05-02T00:52:24.827Z,3.70
2018-05-02T00:54:54.465Z,4.50
2018-05-02T00:57:22.807Z,4.80
2018-05-02T00:59:51.894Z,3.50
2018-05-02T01:02:20.168Z,4.03
2018-05-02T01:04:48.506Z,3.90
2018-05-02T01:07:16.771Z,3.57
2018-05-02T01:09:45.778Z,3.67
2018-05-02T01:12:14.888Z,3.90
2018-05-02T01:14:44.028Z,4.17
2018-05-02T01:17:13.211Z,4.00
2018-05-02T01:19:42.547Z,4.67
2018-05-02T01:22:11.713Z,4.00
2018-05-02T01:24:40.006Z,5.20
2018-05-02T01:27:08.286Z,4.60
2018-05-02T01:29:37.443Z,5.47
2018-05-02T01:32:06.833Z,4.90
2018-05-02T01:34:35.879Z,4.77
2018-05-02T01:37:04.259Z,4.47
2018-05-02T01:39:32.643Z,3.80
2018-05-02T01:42:00.906Z,4.80
2018-05-02T01:44:29.179Z,4.30
2018-05-02T01:46:57.447Z,3.23
2018-05-02T01:49:25.930Z,4.57
2018-05-02T01:51:54.212Z,4.07
2018-05-02T01:54:23.400Z,4.60
2018-05-02T01:56:51.828Z,4.00
2018-05-02T01:59:20.094Z,3.43
2018-05-02T02:01:48.373Z,3.50
2018-05-02T02:04:17.274Z,4.20
2018-05-02T02:06:46.830Z,3.80
2018-05-02T02:09:15.868Z,3.90
2018-05-02T02:11:44.369Z,4.83
2018-05-02T02:14:12.678Z,4.90
2018-05-02T02:16:41.717Z,5.97
2018-05-02T02:19:11.250Z,5.80
2018-05-02T02:21:39.610Z,5.10
2018-05-02T02:24:08.177Z,5.90
2018-05-02T02:26:36.443Z,5.47
2018-05-02T02:29:04.735Z,5.40
2018-05-02T02:31:33.122Z,4.20
2018-05-02T02:34:02.020Z,5.20
2018-05-02T02:36:30.296Z,5.10
2018-05-02T02:38:58.579Z,4.00
2018-05-02T02:41:26.867Z,4.07
2018-05-02T02:43:55.136Z,5.23
2018-05-02T02:46:23.407Z,4.80
2018-05-02T02:48:52.191Z,3.20
2018-05-02T02:51:20.631Z,3.00
2018-05-02T02:53:49.665Z,3.10
2018-05-02T02:56:17.967Z,3.80
2018-05-02T02:58:46.694Z,3.03
2018-05-02T03:01:15.718Z,4.27
2018-05-02T03:03:44.055Z,4.47
2018-05-02T03:06:12.611Z,5.03
2018-05-02T03:08:42.239Z,3.90
2018-05-02T03:11:10.512Z,3.07
2018-05-02T03:13:39.523Z,3.93
2018-05-02T03:16:08.552Z,4.20
2018-05-02T03:18:36.912Z,5.10
2018-05-02T03:21:06.069Z,5.80
2018-05-02T03:23:34.375Z,5.73
2018-05-02T03:26:03.111Z,4.80
2018-05-02T03:28:31.415Z,6.73
2018-05-02T03:30:59.710Z,5.57
2018-05-02T03:33:27.984Z,5.07
2018-05-02T03:35:56.278Z,5.33
2018-05-02T03:38:25.320Z,5.00
2018-05-02T03:40:53.590Z,4.07
2018-05-02T03:43:21.883Z,4.30
2018-05-02T03:45:50.363Z,4.00
2018-05-02T03:48:18.642Z,5.67
2018-05-02T03:50:47.066Z,4.70
2018-05-02T03:53:15.627Z,4.30
2018-05-02T03:55:44.191Z,4.00
2018-05-02T03:58:14.110Z,5.10
2018-05-02T04:01:00.419Z,4.23
2018-05-02T04:07:08.954Z,4.77
2018-05-02T04:09:37.972Z,4.90
2018-05-02T04:12:06.253Z,4.07
2018-05-02T04:14:35.011Z,4.60
2018-05-02T04:17:03.383Z,4.70
2018-05-02T04:19:31.649Z,4.90
2018-05-02T04:22:00.246Z,5.00
2018-05-02T04:24:29.180Z,5.17
2018-05-02T04:26:57.963Z,5.27
2018-05-02T04:29:26.261Z,4.77
2018-05-02T04:31:54.590Z,5.20
2018-05-02T04:34:22.855Z,4.50
2018-05-02T04:36:52.044Z,5.10
2018-05-02T04:39:21.157Z,4.90
2018-05-02T04:41:49.430Z,4.53
2018-05-02T04:44:17.709Z,5.07
2018-05-02T04:46:46.334Z,4.97
2018-05-02T04:49:15.490Z,4.23
2018-05-02T04:51:43.778Z,5.40
2018-05-02T04:54:12.190Z,5.00
2018-05-02T04:56:40.868Z,3.47
2018-05-02T04:59:09.700Z,4.10
2018-05-02T05:01:38.829Z,4.13
2018-05-02T05:04:07.117Z,4.57
2018-05-02T05:06:36.799Z,4.40
2018-05-02T05:09:05.031Z,4.10
2018-05-02T05:11:33.775Z,3.77
2018-05-02T05:14:02.066Z,3.77
2018-05-02T05:16:31.258Z,3.80
2018-05-02T05:18:59.649Z,3.90
2018-05-02T05:21:27.919Z,3.40
2018-05-02T05:23:56.198Z,3.67
2018-05-02T05:26:24.479Z,3.43
2018-05-02T05:28:53.675Z,4.20
2018-05-02T05:31:22.008Z,3.77
2018-05-02T05:33:51.054Z,2.90
2018-05-02T05:36:20.402Z,3.00
2018-05-02T05:38:48.935Z,2.97
2018-05-02T05:41:17.205Z,2.90
2018-05-02T05:43:46.231Z,3.00
2018-05-02T05:46:14.690Z,2.90
2018-05-02T05:48:43.731Z,2.73
2018-05-02T05:51:13.107Z,2.60
2018-05-02T05:53:42.197Z,2.50
2018-05-02T05:56:10.455Z,1.90
2018-05-02T05:58:39.580Z,3.03
2018-05-02T06:01:08.713Z,3.07
2018-05-02T06:03:37.041Z,2.67
2018-05-02T06:06:05.306Z,3.57
2018-05-02T06:08:34.482Z,2.57
2018-05-02T06:11:03.613Z,2.70
2018-05-02T06:13:32.340Z,2.57
2018-05-02T06:16:01.244Z,2.90
2018-05-02T06:18:30.337Z,3.20
2018-05-02T06:20:59.972Z,2.47
2018-05-02T06:23:28.991Z,2.40
2018-05-02T06:25:57.647Z,2.70
2018-05-02T06:28:26.713Z,2.83
2018-05-02T06:30:54.958Z,1.97
2018-05-02T06:33:23.242Z,2.97
2018-05-02T06:35:52.014Z,2.93
2018-05-02T06:38:20.769Z,2.07
2018-05-02T06:40:49.812Z,2.37
2018-05-02T06:43:18.123Z,2.63
2018-05-02T06:45:46.438Z,3.40
2018-05-02T06:48:14.718Z,2.40
2018-05-02T06:50:44.411Z,2.63
2018-05-02T06:53:14.175Z,2.80
2018-05-02T06:55:42.542Z,2.80
2018-05-02T06:58:11.725Z,2.40
2018-05-02T07:00:40.867Z,2.63
2018-05-02T07:03:09.220Z,2.23
2018-05-02T07:05:37.711Z,2.57
2018-05-02T07:08:06.804Z,2.17
2018-05-02T07:10:35.079Z,3.13
2018-05-02T07:13:03.379Z,2.33
2018-05-02T07:15:31.630Z,2.77
2018-05-02T07:17:59.924Z,2.80
2018-05-02T07:20:28.233Z,2.13
2018-05-02T07:22:56.935Z,2.50
2018-05-02T07:25:26.065Z,2.40
2018-05-02T07:27:54.403Z,2.47
2018-05-02T07:30:23.633Z,2.10
2018-05-02T07:32:52.515Z,2.30
2018-05-02T07:35:21.535Z,2.10
2018-05-02T07:37:49.802Z,2.20
2018-05-02T07:40:18.128Z,2.23
2018-05-02T07:42:46.391Z,2.37
2018-05-02T07:45:15.567Z,2.23
2018-05-02T07:47:45.598Z,2.17
2018-05-02T07:50:14.401Z,2.60
2018-05-02T07:52:42.718Z,2.63
2018-05-02T07:55:11.766Z,2.63
2018-05-02T07:57:40.130Z,2.50
2018-05-02T08:00:08.543Z,2.73
2018-05-02T08:02:37.302Z,2.70
2018-05-02T08:05:06.274Z,3.63
2018-05-02T08:07:34.623Z,3.40
2018-05-02T08:10:03.707Z,4.70
2018-05-02T08:12:31.999Z,4.03
2018-05-02T08:15:01.039Z,3.90
2018-05-02T08:17:29.967Z,3.97
2018-05-02T08:19:58.529Z,4.00
2018-05-02T08:22:27.218Z,4.57
2018-05-02T08:24:56.351Z,4.00
2018-05-02T08:27:24.618Z,4.60
2018-05-02T08:29:53.262Z,5.00
2018-05-02T08:32:21.538Z,4.63
2018-05-02T08:34:50.150Z,4.23
2018-05-02T08:37:18.450Z,3.97
2018-05-02T08:39:47.617Z,4.67
2018-05-02T08:42:16.714Z,5.33
2018-05-02T08:44:45.894Z,4.10
2018-05-02T08:47:14.451Z,5.10
2018-05-02T08:49:43.595Z,5.10
2018-05-02T08:52:13.404Z,5.73
2018-05-02T08:54:41.678Z,4.20
2018-05-02T08:57:10.266Z,4.90
2018-05-02T08:59:39.758Z,4.77
2018-05-02T09:02:08.030Z,6.00
2018-05-02T09:04:36.417Z,5.13
2018-05-02T09:07:04.700Z,4.77
2018-05-02T09:09:33.027Z,5.87
2018-05-02T09:12:02.082Z,5.50
2018-05-02T09:14:31.191Z,5.60
2018-05-02T09:16:59.776Z,5.70
2018-05-02T09:19:28.142Z,5.63
2018-05-02T09:21:56.431Z,5.53
2018-05-02T09:24:25.041Z,5.90
2018-05-02T09:26:55.270Z,5.40
2018-05-02T09:29:23.555Z,5.40
2018-05-02T09:31:53.303Z,6.20
2018-05-02T09:34:22.098Z,5.97
2018-05-02T09:36:51.091Z,5.80
2018-05-02T09:39:19.702Z,5.70
2018-05-02T09:41:48.802Z,6.00
2018-05-02T09:44:17.462Z,5.50
2018-05-02T09:46:45.751Z,4.80
2018-05-02T09:49:14.130Z,5.10
2018-05-02T09:51:42.435Z,5.07
2018-05-02T09:54:11.538Z,4.77
2018-05-02T09:56:40.350Z,4.40
2018-05-02T09:59:09.505Z,4.70
2018-05-02T10:01:37.886Z,4.70
2018-05-02T10:04:07.111Z,4.50
2018-05-02T10:06:36.186Z,4.03
2018-05-02T10:09:04.478Z,4.50
2018-05-02T10:11:33.646Z,5.47
2018-05-02T10:14:01.939Z,4.30
2018-05-02T10:16:30.647Z,4.43
2018-05-02T10:18:59.700Z,4.20
2018-05-02T10:21:27.975Z,4.00
2018-05-02T10:23:56.241Z,4.17
2018-05-02T10:26:25.163Z,4.43
2018-05-02T10:28:54.259Z,4.70
2018-05-02T10:31:22.796Z,4.30
2018-05-02T10:33:51.938Z,5.60
2018-05-02T10:36:20.952Z,4.30
2018-05-02T10:38:49.975Z,4.83
2018-05-02T10:41:19.834Z,3.93
2018-05-02T10:43:48.513Z,4.77
2018-05-02T10:46:16.802Z,4.60
2018-05-02T10:48:45.802Z,4.20
2018-05-02T10:51:14.730Z,4.90
2018-05-02T10:53:44.543Z,3.80
2018-05-02T10:56:13.700Z,5.03
2018-05-02T10:58:42.734Z,5.47
2018-05-02T11:01:11.772Z,4.33
2018-05-02T11:03:40.592Z,5.50
2018-05-02T11:06:09.098Z,6.07
2018-05-02T11:08:38.134Z,5.30
2018-05-02T11:11:06.530Z,5.40
2018-05-02T11:13:35.519Z,4.80
2018-05-02T11:16:03.788Z,4.40
2018-05-02T11:18:32.210Z,4.97
2018-05-02T11:21:01.684Z,4.20
2018-05-02T11:23:30.643Z,4.43
2018-05-02T11:25:59.923Z,4.30
2018-05-02T11:28:28.279Z,4.73
2018-05-02T11:30:57.668Z,3.80
2018-05-02T11:33:26.159Z,4.33
2018-05-02T11:35:56.123Z,4.30
2018-05-02T11:38:26.040Z,3.97
2018-05-02T11:40:55.093Z,4.40
2018-05-02T11:43:23.388Z,3.70
2018-05-02T11:45:51.694Z,4.07
2018-05-02T11:48:20.730Z,3.90
2018-05-02T11:50:49.002Z,3.30
2018-05-02T11:53:17.310Z,3.57
2018-05-02T11:55:45.659Z,3.97
2018-05-02T11:58:14.090Z,3.80
2018-05-02T12:00:43.393Z,3.07
2018-05-02T12:03:12.595Z,4.27
2018-05-02T12:05:41.752Z,4.87
2018-05-02T12:08:10.746Z,4.23
2018-05-02T12:10:39.558Z,5.50
2018-05-02T12:13:08.470Z,4.67
2018-05-02T12:15:36.752Z,4.40
2018-05-02T12:18:05.914Z,4.47
2018-05-02T12:20:34.434Z,4.50
2018-05-02T12:23:05.438Z,4.20
2018-05-02T12:25:33.827Z,3.53
2018-05-02T12:28:02.854Z,3.50
2018-05-02T12:30:32.509Z,3.20
2018-05-02T12:33:00.795Z,4.10
2018-05-02T12:35:29.827Z,3.97
2018-05-02T12:37:58.270Z,3.93
2018-05-02T12:40:26.479Z,3.50
2018-05-02T12:42:54.818Z,3.77
2018-05-02T12:45:23.730Z,3.90
2018-05-02T12:47:51.998Z,3.50
2018-05-02T12:50:20.302Z,3.93
2018-05-02T12:52:48.766Z,3.87
2018-05-02T12:55:17.471Z,3.90
2018-05-02T12:57:46.101Z,4.30
2018-05-02T13:00:14.499Z,3.97
2018-05-02T13:02:42.785Z,3.40
2018-05-02T13:05:11.499Z,4.00
2018-05-02T13:07:39.963Z,3.40
2018-05-02T13:10:09.826Z,3.70
2018-05-02T13:12:39.915Z,4.37
2018-05-02T13:15:08.726Z,4.07
2018-05-02T13:17:37.051Z,3.27
2018-05-02T13:20:06.286Z,3.43
2018-05-02T13:22:34.616Z,3.93
2018-05-02T13:25:02.895Z,3.07
2018-05-02T13:27:31.211Z,4.00
2018-05-02T13:30:01.103Z,3.20
2018-05-02T13:32:29.382Z,3.10
2018-05-02T13:34:57.963Z,3.27
2018-05-02T13:37:26.619Z,3.33
2018-05-02T13:39:55.671Z,3.33
2018-05-02T13:42:24.354Z,4.60
2018-05-02T13:44:54.012Z,2.67
2018-05-02T13:47:23.122Z,3.30
2018-05-02T13:49:52.507Z,3.20
2018-05-02T13:52:22.999Z,3.60
2018-05-02T13:54:51.287Z,4.00
2018-05-02T13:57:20.365Z,3.40
2018-05-02T13:59:48.735Z,4.00
2018-05-02T14:02:17.031Z,3.00
2018-05-02T14:04:45.335Z,3.70
2018-05-02T14:07:15.163Z,3.70
2018-05-02T14:09:44.214Z,4.80
2018-05-02T14:12:13.108Z,3.77
2018-05-02T14:14:41.404Z,3.60
2018-05-02T14:17:09.690Z,4.03
2018-05-02T14:19:38.253Z,3.33
2018-05-02T14:22:07.174Z,4.27
2018-05-02T14:24:36.221Z,4.40
2018-05-02T14:27:04.512Z,4.40
2018-05-02T14:29:33.313Z,3.80
2018-05-02T14:32:02.457Z,3.40
2018-05-02T14:34:30.747Z,3.40
2018-05-02T14:36:59.037Z,4.83
2018-05-02T14:39:28.456Z,4.13
2018-05-02T14:41:56.726Z,3.83
2018-05-02T14:44:25.029Z,4.03
2018-05-02T14:46:54.818Z,4.10
2018-05-02T14:49:23.313Z,4.17
2018-05-02T14:51:51.679Z,3.93
2018-05-02T14:54:20.057Z,3.47
2018-05-02T14:56:48.334Z,3.73
2018-05-02T14:59:16.620Z,2.93
2018-05-02T15:01:44.911Z,3.80
2018-05-02T15:04:13.198Z,4.27
2018-05-02T15:06:41.552Z,4.53
2018-05-02T15:09:09.936Z,3.67
2018-05-02T15:11:38.243Z,3.97
2018-05-02T15:14:06.534Z,3.80
2018-05-02T15:16:36.168Z,4.00
2018-05-02T15:19:04.459Z,3.07
2018-05-02T15:21:33.677Z,3.30
2018-05-02T15:24:02.772Z,3.00
2018-05-02T15:26:31.763Z,3.03
2018-05-02T15:29:00.413Z,3.70
2018-05-02T15:31:30.163Z,3.77
2018-05-02T15:33:59.253Z,2.77
2018-05-02T15:36:27.564Z,3.47
2018-05-02T15:38:56.623Z,2.57
2018-05-02T15:41:25.429Z,3.13
2018-05-02T15:43:55.371Z,3.90
2018-05-02T15:46:24.326Z,2.70
2018-05-02T15:48:53.290Z,3.57
2018-05-02T15:51:21.573Z,3.43
2018-05-02T15:53:50.819Z,3.57
2018-05-02T15:56:20.399Z,3.30
2018-05-02T15:58:49.530Z,3.20
2018-05-02T16:01:18.438Z,3.10
2018-05-02T16:03:47.449Z,3.30
2018-05-02T16:06:17.219Z,3.10
2018-05-02T16:08:46.212Z,3.07
2018-05-02T16:11:14.831Z,3.27
2018-05-02T16:13:43.446Z,3.53
2018-05-02T16:16:13.710Z,4.20
2018-05-02T16:18:42.436Z,3.80
2018-05-02T16:21:11.471Z,3.70
2018-05-02T16:23:40.811Z,3.10
2018-05-02T16:26:09.463Z,3.80
2018-05-02T16:28:39.063Z,4.13
2018-05-02T16:31:07.425Z,4.17
2018-05-02T16:33:37.201Z,4.20
2018-05-02T16:36:05.791Z,4.80
2018-05-02T16:38:34.460Z,4.00
2018-05-02T16:41:03.449Z,4.07
2018-05-02T16:43:31.799Z,3.70
2018-05-02T16:46:00.636Z,4.10
2018-05-02T16:48:28.923Z,4.00
2018-05-02T16:50:58.728Z,3.80
2018-05-02T16:53:27.020Z,3.43
2018-05-02T16:55:56.176Z,3.40
2018-05-02T16:58:24.466Z,3.33
2018-05-02T17:00:53.008Z,3.73
2018-05-02T17:03:21.316Z,2.97
2018-05-02T17:05:50.084Z,2.83
2018-05-02T17:08:18.415Z,4.10
2018-05-02T17:10:46.704Z,3.90
2018-05-02T17:13:15.675Z,3.63
2018-05-02T17:15:44.866Z,3.70
2018-05-02T17:18:13.235Z,3.60
2018-05-02T17:20:41.622Z,3.80
2018-05-02T17:23:09.999Z,3.77
2018-05-02T17:25:38.321Z,3.43
2018-05-02T17:28:07.375Z,3.33
2018-05-02T17:30:36.466Z,3.20
2018-05-02T17:33:04.828Z,3.80
2018-05-02T17:35:33.743Z,3.10
2018-05-02T17:38:02.029Z,4.07
2018-05-02T17:40:30.294Z,4.70
2018-05-02T17:43:00.329Z,4.33
2018-05-02T17:45:28.948Z,3.70
2018-05-02T17:47:58.955Z,3.90
2018-05-02T17:50:27.939Z,3.53
2018-05-02T17:52:56.947Z,4.00
2018-05-02T17:55:25.747Z,4.33
2018-05-02T17:57:55.403Z,4.10
2018-05-02T18:00:24.870Z,3.40
2018-05-02T18:02:53.943Z,4.63
2018-05-02T18:05:22.238Z,3.77
2018-05-02T18:07:51.364Z,4.57
2018-05-02T18:10:20.192Z,3.77
2018-05-02T18:12:49.208Z,3.27
2018-05-02T18:15:19.029Z,4.00
2018-05-02T18:17:48.219Z,4.00
2018-05-02T18:20:17.377Z,4.57
2018-05-02T18:22:45.781Z,4.43
2018-05-02T18:25:15.658Z,3.70
2018-05-02T18:27:44.611Z,4.00
2018-05-02T18:30:13.001Z,3.40
2018-05-02T18:32:42.907Z,4.20
2018-05-02T18:35:11.958Z,4.10
2018-05-02T18:37:41.579Z,3.87
2018-05-02T18:40:11.901Z,3.97
2018-05-02T18:42:40.259Z,4.17
2018-05-02T18:45:08.576Z,4.13
2018-05-02T18:47:36.870Z,4.20
2018-05-02T18:50:06.547Z,4.40
2018-05-02T18:52:36.386Z,3.60
2018-05-02T18:55:07.597Z,6.77
2018-05-02T18:57:35.952Z,4.00
2018-05-02T19:00:04.224Z,4.30
2018-05-02T19:02:32.851Z,4.30
2018-05-02T19:05:01.958Z,4.33
2018-05-02T19:07:30.232Z,4.20
2018-05-02T19:09:59.866Z,4.33
2018-05-02T19:12:28.144Z,4.20
2018-05-02T19:14:57.199Z,3.43
2018-05-02T19:17:25.510Z,4.37
2018-05-02T19:19:59.488Z,4.53
2018-05-02T19:22:27.783Z,3.90
2018-05-02T19:25:01.935Z,3.70
2018-05-02T19:27:30.971Z,4.10
2018-05-02T19:29:59.254Z,4.73
2018-05-02T19:32:33.678Z,4.30
2018-05-02T19:35:02.012Z,4.20
2018-05-02T19:37:31.075Z,4.33
2018-05-02T19:40:05.178Z,4.30
2018-05-02T19:42:38.932Z,4.60
2018-05-02T19:45:08.086Z,3.57
2018-05-02T19:47:36.763Z,4.13
2018-05-02T19:50:05.450Z,4.60
2018-05-02T19:52:39.263Z,4.50
2018-05-02T19:55:07.543Z,4.90
2018-05-02T19:57:36.055Z,4.50
2018-05-02T20:00:05.111Z,4.30
2018-05-02T20:02:39.373Z,4.60
2018-05-02T20:05:08.951Z,4.43
2018-05-02T20:07:42.674Z,4.13
2018-05-02T20:10:16.631Z,4.00
2018-05-02T20:12:51.163Z,4.10
2018-05-02T20:15:19.679Z,4.67
2018-05-02T20:17:48.418Z,3.70
2018-05-02T20:20:17.334Z,4.50
2018-05-02T20:22:45.723Z,4.50
2018-05-02T20:25:14.142Z,4.87
2018-05-02T20:27:42.427Z,3.27
2018-05-02T20:30:12.161Z,3.80
2018-05-02T20:32:41.079Z,4.83
2018-05-02T20:35:10.157Z,3.83
2018-05-02T20:37:38.823Z,5.53
2018-05-02T20:40:08.687Z,4.13
2018-05-02T20:42:37.154Z,4.47
2018-05-02T20:45:05.419Z,4.13
2018-05-02T20:47:34.532Z,4.57
2018-05-02T20:50:02.828Z,5.00
2018-05-02T20:52:31.300Z,5.20
2018-05-02T20:55:00.039Z,4.83
2018-05-02T20:57:29.291Z,3.73
2018-05-02T20:59:57.619Z,4.60
2018-05-02T21:02:27.768Z,4.70
2018-05-02T21:04:56.046Z,5.60
2018-05-02T21:07:24.899Z,5.40
2018-05-02T21:09:53.177Z,4.90
2018-05-02T21:12:22.223Z,3.80
2018-05-02T21:14:50.923Z,5.00
2018-05-02T21:17:20.044Z,4.57
2018-05-02T21:19:48.747Z,4.60
2018-05-02T21:22:18.732Z,4.50
2018-05-02T21:24:47.386Z,5.20
2018-05-02T21:27:16.099Z,5.30
2018-05-02T21:29:44.569Z,4.83
2018-05-02T21:32:12.918Z,4.77
2018-05-02T21:34:41.984Z,4.90
2018-05-02T21:37:11.302Z,5.77
2018-05-02T21:39:40.359Z,4.57
2018-05-02T21:42:09.277Z,4.47
2018-05-02T21:44:37.578Z,4.40
2018-05-02T21:47:08.040Z,5.83
2018-05-02T21:49:36.416Z,4.83
2018-05-02T21:52:04.687Z,5.20
2018-05-02T21:54:33.910Z,4.50
2018-05-02T21:57:02.286Z,5.33
2018-05-02T21:59:30.575Z,4.87
2018-05-02T22:01:58.835Z,4.70
2018-05-02T22:04:29.222Z,5.33
2018-05-02T22:06:58.254Z,5.97
2018-05-02T22:09:26.908Z,5.47
2018-05-02T22:11:56.570Z,4.80
2018-05-02T22:14:25.250Z,5.00
2018-05-02T22:16:53.543Z,5.27
2018-05-02T22:19:22.526Z,5.20
2018-05-02T22:21:51.191Z,5.73
2018-05-02T22:24:19.462Z,4.80
2018-05-02T22:26:47.737Z,5.30
2018-05-02T22:29:16.647Z,5.00
2018-05-02T22:31:46.333Z,4.73
2018-05-02T22:34:14.590Z,4.37
2018-05-02T22:36:43.734Z,4.10
2018-05-02T22:39:12.315Z,5.63
2018-05-02T22:41:41.003Z,4.60
2018-05-02T22:44:09.903Z,4.93
2018-05-02T22:46:38.173Z,5.27
2018-05-02T22:49:06.793Z,5.40
2018-05-02T22:51:35.148Z,5.23
2018-05-02T22:54:03.671Z,6.20
2018-05-02T22:56:32.810Z,5.80
2018-05-02T22:59:01.228Z,5.83
2018-05-02T23:01:29.495Z,4.60
2018-05-02T23:03:57.763Z,5.00
2018-05-02T23:06:26.539Z,5.23
2018-05-02T23:08:55.258Z,5.17
2018-05-02T23:11:24.439Z,5.57
2018-05-02T23:13:52.728Z,5.40
2018-05-02T23:16:22.211Z,5.53
2018-05-02T23:18:50.798Z,6.20
2018-05-02T23:21:20.339Z,5.50
2018-05-02T23:23:49.190Z,5.40
2018-05-02T23:26:18.199Z,5.20
2018-05-02T23:28:47.329Z,5.47
2018-05-02T23:31:16.685Z,4.90
2018-05-02T23:33:45.590Z,5.50
2018-05-02T23:36:13.904Z,6.40
2018-05-02T23:38:43.449Z,5.20
2018-05-02T23:41:11.796Z,5.53
2018-05-02T23:43:40.031Z,5.57
2018-05-02T23:46:09.429Z,6.10
2018-05-02T23:48:38.034Z,5.10
2018-05-02T23:51:06.748Z,4.77
2018-05-02T23:53:35.287Z,5.23
2018-05-02T23:56:03.616Z,4.83
2018-05-02T23:58:32.645Z,6.00
